createdAt,value
2023-05-15T00:01:48.474Z,15.37
2023-05-15T00:06:51.669Z,15.38
2023-05-15T00:11:54.616Z,15.33
2023-05-15T00:16:57.805Z,15.32
2023-05-15T00:22:00.728Z,15.21
2023-05-15T00:27:04.460Z,15.12
2023-05-15T00:32:07.704Z,15.11
2023-05-15T00:37:10.917Z,15.20
2023-05-15T00:42:17.355Z,15.23
2023-05-15T00:47:21.268Z,15.18
2023-05-15T00:52:24.561Z,15.10
2023-05-15T00:57:28.182Z,15.07
2023-05-15T01:02:31.469Z,15.06
2023-05-15T01:07:40.137Z,15.06
2023-05-15T01:12:44.750Z,15.01
2023-05-15T01:21:33.458Z,14.98
2023-05-15T01:27:20.678Z,14.94
2023-05-15T01:33:12.310Z,14.90
2023-05-15T01:38:40.669Z,14.96
2023-05-15T01:43:46.136Z,14.98
2023-05-15T01:48:51.011Z,15.03
2023-05-15T01:53:56.533Z,15.01
2023-05-15T01:59:00.985Z,14.95
2023-05-15T02:04:06.038Z,14.84
2023-05-15T02:09:10.528Z,14.82
2023-05-15T02:14:16.589Z,14.84
2023-05-15T02:19:19.805Z,14.84
2023-05-15T02:24:22.990Z,14.84
2023-05-15T02:29:42.231Z,14.79
2023-05-15T02:35:02.065Z,14.80
2023-05-15T02:40:10.193Z,14.81
2023-05-15T02:45:14.607Z,14.76
2023-05-15T02:50:19.000Z,14.73
2023-05-15T02:55:22.384Z,14.71
2023-05-15T03:00:26.263Z,14.66
2023-05-15T03:05:29.498Z,14.66
2023-05-15T03:10:32.726Z,14.70
2023-05-15T03:15:36.048Z,14.77
2023-05-15T03:20:39.289Z,14.82
2023-05-15T03:25:43.529Z,14.83
2023-05-15T03:30:46.762Z,14.79
2023-05-15T03:35:51.410Z,14.78
2023-05-15T03:40:54.854Z,14.82
2023-05-15T03:45:59.627Z,14.95
2023-05-15T03:51:03.538Z,14.93
2023-05-15T03:56:08.043Z,14.86
2023-05-15T04:01:11.788Z,14.85
2023-05-15T04:06:15.206Z,14.86
2023-05-15T04:11:19.394Z,14.92
2023-05-15T04:16:23.212Z,15.01
2023-05-15T04:21:26.677Z,15.06
2023-05-15T04:26:30.336Z,15.08
2023-05-15T04:31:35.340Z,15.03
2023-05-15T04:36:40.642Z,14.98
2023-05-15T04:41:44.631Z,15.01
2023-05-15T04:46:47.979Z,15.04
2023-05-15T04:51:51.246Z,15.09
2023-05-15T04:56:54.932Z,15.13
2023-05-15T05:02:05.287Z,15.13
2023-05-15T05:07:08.859Z,15.14
2023-05-15T05:12:14.776Z,15.18
2023-05-15T05:17:19.185Z,15.34
2023-05-15T05:22:22.459Z,15.48
2023-05-15T05:27:25.593Z,15.52
2023-05-15T05:32:28.776Z,15.53
2023-05-15T05:37:32.910Z,15.54
2023-05-15T05:42:36.911Z,15.49
2023-05-15T05:47:40.233Z,15.54
2023-05-15T05:52:43.621Z,15.50
2023-05-15T05:57:47.222Z,15.39
2023-05-15T06:02:55.728Z,15.35
2023-05-15T06:08:01.521Z,15.28
2023-05-15T06:13:05.060Z,15.25
2023-05-15T06:18:08.098Z,15.25
2023-05-15T06:23:11.176Z,15.23
2023-05-15T06:28:14.114Z,15.24
2023-05-15T06:33:17.221Z,15.26
2023-05-15T06:38:20.288Z,15.28
2023-05-15T06:43:23.226Z,15.35
2023-05-15T06:48:26.120Z,15.51
2023-05-15T06:53:30.203Z,15.70
2023-05-15T06:58:33.115Z,15.87
2023-05-15T07:03:36.227Z,15.93
2023-05-15T07:08:39.189Z,15.92
2023-05-15T07:13:42.174Z,15.95
2023-05-15T07:18:45.292Z,15.99
2023-05-15T07:23:48.272Z,16.13
2023-05-15T07:28:51.804Z,16.18
2023-05-15T07:33:54.743Z,16.30
2023-05-15T07:38:57.758Z,16.40
2023-05-15T07:44:00.743Z,16.43
2023-05-15T07:49:03.887Z,16.50
2023-05-15T07:54:06.839Z,16.58
2023-05-15T07:59:09.832Z,16.63
2023-05-15T08:04:13.043Z,16.63
2023-05-15T08:09:16.106Z,16.58
2023-05-15T08:14:19.073Z,16.54
2023-05-15T08:19:23.931Z,16.59
2023-05-15T08:24:26.982Z,16.61
2023-05-15T08:29:29.874Z,16.70
2023-05-15T08:34:32.792Z,16.77
2023-05-15T08:39:35.780Z,16.84
2023-05-15T08:44:39.534Z,16.88
2023-05-15T08:50:04.697Z,16.93
2023-05-15T08:55:08.216Z,17.00
2023-05-15T09:00:15.000Z,17.01
2023-05-15T09:05:18.308Z,17.07
2023-05-15T09:10:22.246Z,17.20
2023-05-15T09:15:25.811Z,17.29
2023-05-15T09:20:34.628Z,17.34
2023-05-15T09:25:42.692Z,17.37
2023-05-15T09:30:46.047Z,17.38
2023-05-15T09:35:49.028Z,17.42
2023-05-15T09:41:02.178Z,17.41
2023-05-15T09:46:06.662Z,17.39
2023-05-15T09:51:18.685Z,17.41
2023-05-15T09:56:22.908Z,17.46
2023-05-15T10:01:27.830Z,17.56
2023-05-15T10:06:40.680Z,17.55
2023-05-15T10:11:53.128Z,17.52
2023-05-15T10:16:57.191Z,17.55
2023-05-15T10:22:00.708Z,17.49
2023-05-15T10:27:04.718Z,17.41
2023-05-15T10:32:08.526Z,17.44
2023-05-15T10:37:12.687Z,17.63
2023-05-15T10:42:17.042Z,17.67
2023-05-15T10:47:20.921Z,17.75
2023-05-15T10:52:24.524Z,17.82
2023-05-15T10:57:30.347Z,17.82
2023-05-15T11:02:39.293Z,17.82
2023-05-15T11:07:43.261Z,17.80
2023-05-15T11:12:56.724Z,17.79
2023-05-15T11:18:07.266Z,17.82
2023-05-15T11:23:10.417Z,17.91
2023-05-15T11:28:25.577Z,18.02
2023-05-15T11:33:31.657Z,18.04
2023-05-15T11:38:40.200Z,18.03
2023-05-15T11:43:43.221Z,18.31
2023-05-15T11:48:50.264Z,18.28
2023-05-15T11:53:56.281Z,18.24
2023-05-15T11:59:01.300Z,18.29
2023-05-15T12:04:13.199Z,18.72
2023-05-15T12:09:19.168Z,19.12
2023-05-15T12:14:31.465Z,19.56
2023-05-15T12:19:35.818Z,19.80
2023-05-15T12:24:40.521Z,19.91
2023-05-15T12:29:43.727Z,20.33
2023-05-15T12:34:47.136Z,20.90
2023-05-15T12:40:00.173Z,21.39
2023-05-15T12:45:03.493Z,21.86
2023-05-15T12:50:12.981Z,21.89
2023-05-15T12:55:17.546Z,22.07
2023-05-15T13:00:22.788Z,22.43
2023-05-15T13:05:27.033Z,22.61
2023-05-15T13:10:33.510Z,22.76
2023-05-15T13:15:42.273Z,22.41
2023-05-15T13:20:49.570Z,21.99
2023-05-15T13:25:52.561Z,21.54
2023-05-15T13:30:55.604Z,21.09
2023-05-15T13:35:58.829Z,20.70
2023-05-15T13:41:01.952Z,20.41
2023-05-15T13:46:05.149Z,20.06
2023-05-15T13:51:08.761Z,19.73
2023-05-15T13:56:12.490Z,19.48
2023-05-15T14:01:15.613Z,19.37
2023-05-15T14:06:18.673Z,19.29
2023-05-15T14:11:22.941Z,19.21
2023-05-15T14:16:25.921Z,19.04
2023-05-15T14:21:29.208Z,18.84
2023-05-15T14:26:32.727Z,18.84
2023-05-15T14:31:36.015Z,19.03
2023-05-15T14:36:39.087Z,19.15
2023-05-15T14:41:43.018Z,19.36
2023-05-15T14:46:46.014Z,19.50
2023-05-15T14:51:49.022Z,19.58
2023-05-15T14:56:51.995Z,19.59
2023-05-15T15:01:55.535Z,19.64
2023-05-15T15:06:58.736Z,19.68
2023-05-15T15:12:03.446Z,19.66
2023-05-15T15:17:06.410Z,19.57
2023-05-15T15:22:09.553Z,19.49
2023-05-15T15:27:12.520Z,19.47
2023-05-15T15:32:15.750Z,19.52
2023-05-15T15:37:18.747Z,19.58
2023-05-15T15:42:30.537Z,19.68
2023-05-15T15:47:33.657Z,19.76
2023-05-15T15:52:36.872Z,19.80
2023-05-15T15:57:39.808Z,19.80
2023-05-15T16:02:43.061Z,19.77
2023-05-15T16:07:47.975Z,19.64
2023-05-15T16:12:51.312Z,19.54
2023-05-15T16:17:55.002Z,19.43
2023-05-15T16:22:59.649Z,19.41
2023-05-15T16:28:02.836Z,19.36
2023-05-15T16:33:05.959Z,19.27
2023-05-15T16:38:09.327Z,19.16
2023-05-15T16:43:13.711Z,19.05
2023-05-15T16:48:16.858Z,19.01
2023-05-15T16:53:20.221Z,19.04
2023-05-15T16:58:23.314Z,19.01
2023-05-15T17:03:26.384Z,18.99
2023-05-15T17:08:29.558Z,18.95
2023-05-15T17:13:32.527Z,18.86
2023-05-15T17:18:35.669Z,18.79
2023-05-15T19:25:29.922Z,17.29
2023-05-15T19:30:33.577Z,17.21
2023-05-15T19:35:37.732Z,17.16
2023-05-15T19:40:44.012Z,17.20
2023-05-15T19:45:47.669Z,17.14
2023-05-15T19:50:51.138Z,17.05
2023-05-15T19:55:54.171Z,16.99
2023-05-15T20:00:57.617Z,16.97
2023-05-15T20:06:03.982Z,16.90
2023-05-15T20:11:06.977Z,16.86
2023-05-15T20:16:12.806Z,16.78
2023-05-15T20:21:16.109Z,16.74
2023-05-15T20:26:20.413Z,16.70
2023-05-15T20:31:23.713Z,16.62
2023-05-15T20:36:27.147Z,16.57
2023-05-15T20:41:30.512Z,16.51
2023-05-15T20:46:33.631Z,16.47
2023-05-15T20:51:36.836Z,16.41
2023-05-15T20:56:40.105Z,16.33
2023-05-15T21:01:43.364Z,16.31
2023-05-15T21:06:46.425Z,16.19
2023-05-15T21:11:49.491Z,16.13
2023-05-15T21:16:55.117Z,16.09
2023-05-15T21:21:58.121Z,16.05
2023-05-15T21:27:01.081Z,16.02
2023-05-15T21:32:05.979Z,15.97
2023-05-15T21:37:10.995Z,15.91
2023-05-15T21:42:13.889Z,15.85
2023-05-15T21:47:17.216Z,15.74
2023-05-15T21:52:20.136Z,15.67
2023-05-15T21:57:24.502Z,15.63
2023-05-15T22:02:27.519Z,15.57
2023-05-15T22:07:30.607Z,15.48
2023-05-15T22:12:34.358Z,15.40
2023-05-15T22:17:37.484Z,15.40
2023-05-15T22:22:42.636Z,15.43
2023-05-15T22:27:46.375Z,15.40
2023-05-15T22:32:49.410Z,15.38
2023-05-15T22:37:52.695Z,15.35
2023-05-15T22:42:55.581Z,15.31
2023-05-15T22:47:58.666Z,15.22
2023-05-15T22:53:01.742Z,15.04
2023-05-15T22:58:04.904Z,14.85
2023-05-15T23:03:08.497Z,14.69
2023-05-15T23:08:11.716Z,14.57
2023-05-15T23:13:14.749Z,14.60
2023-05-15T23:18:17.872Z,14.70
2023-05-15T23:23:21.442Z,14.74
2023-05-15T23:28:24.602Z,14.74
2023-05-15T23:33:27.733Z,14.81
2023-05-15T23:38:30.896Z,14.83
2023-05-15T23:43:33.985Z,14.85
2023-05-15T23:48:36.960Z,14.85
2023-05-15T23:53:39.923Z,14.79
2023-05-15T23:58:42.997Z,14.73
